createdAt,value
2019-06-01T00:01:38.156Z,2.40
2019-06-01T00:04:06.602Z,2.02
2019-06-01T00:06:35.016Z,2.52
2019-06-01T00:09:05.126Z,2.22
2019-06-01T00:11:33.555Z,2.60
2019-06-01T00:14:01.954Z,2.30
2019-06-01T00:16:30.349Z,2.35
2019-06-01T00:18:58.768Z,2.02
2019-06-01T00:21:27.233Z,2.05
2019-06-01T00:23:55.611Z,2.30
2019-06-01T00:26:24.020Z,2.35
2019-06-01T00:28:53.038Z,2.35
2019-06-01T00:31:21.540Z,2.60
2019-06-01T00:33:49.929Z,1.98
2019-06-01T00:36:18.321Z,2.00
2019-06-01T00:38:47.839Z,2.85
2019-06-01T00:41:16.383Z,2.35
2019-06-01T00:43:44.786Z,2.10
2019-06-01T00:46:13.191Z,2.35
2019-06-01T00:48:41.705Z,2.25
2019-06-01T00:51:10.057Z,2.62
2019-06-01T00:53:38.464Z,2.50
2019-06-01T00:56:06.870Z,2.17
2019-06-01T00:58:35.257Z,2.10
2019-06-01T01:01:03.681Z,2.33
2019-06-01T01:03:32.070Z,2.20
2019-06-01T01:06:00.474Z,2.12
2019-06-01T01:08:28.891Z,2.08
2019-06-01T01:10:57.310Z,2.30
2019-06-01T01:13:27.282Z,2.27
2019-06-01T01:15:55.842Z,2.30
2019-06-01T01:18:24.425Z,2.20
2019-06-01T01:20:54.075Z,2.10
2019-06-01T01:23:22.716Z,2.20
2019-06-01T01:25:51.112Z,2.40
2019-06-01T01:28:19.720Z,2.17
2019-06-01T01:31:03.116Z,2.05
2019-06-01T01:33:18.190Z,2.40
2019-06-01T01:35:47.541Z,2.40
2019-06-01T01:38:16.144Z,2.37
2019-06-01T01:40:44.551Z,2.17
2019-06-01T01:43:12.950Z,2.20
2019-06-01T01:45:41.982Z,2.10
2019-06-01T01:48:10.440Z,2.30
2019-06-01T01:50:38.811Z,1.75
2019-06-01T01:53:07.225Z,2.15
2019-06-01T01:55:35.625Z,1.92
2019-06-01T01:58:04.032Z,2.42
2019-06-01T02:00:46.114Z,2.00
2019-06-01T02:03:14.491Z,2.30
2019-06-01T02:05:42.916Z,2.05
2019-06-01T02:08:11.353Z,2.27
2019-06-01T02:10:39.798Z,2.33
2019-06-01T02:13:08.377Z,2.37
2019-06-01T02:15:37.693Z,2.40
2019-06-01T02:18:06.177Z,2.22
2019-06-01T02:20:34.618Z,2.35
2019-06-01T02:23:03.325Z,2.10
2019-06-01T02:25:31.768Z,2.30
2019-06-01T02:28:01.395Z,2.40
2019-06-01T02:30:30.057Z,2.20
2019-06-01T02:33:00.100Z,2.12
2019-06-01T02:35:28.681Z,2.52
2019-06-01T02:37:58.606Z,2.30
2019-06-01T02:40:27.090Z,2.12
2019-06-01T02:42:57.163Z,1.98
2019-06-01T02:45:25.720Z,2.10
2019-06-01T02:47:55.366Z,2.10
2019-06-01T02:50:23.915Z,2.00
2019-06-01T02:52:52.432Z,2.40
2019-06-01T02:55:20.807Z,2.10
2019-06-01T02:57:49.229Z,2.30
2019-06-01T03:00:19.582Z,2.10
2019-06-01T03:02:48.060Z,2.00
2019-06-01T03:05:16.456Z,2.35
2019-06-01T03:07:44.855Z,2.33
2019-06-01T03:10:13.313Z,2.00
2019-06-01T03:12:44.774Z,2.20
2019-06-01T03:15:14.974Z,2.17
2019-06-01T03:17:49.031Z,2.12
2019-06-01T03:20:17.383Z,2.30
2019-06-01T03:22:47.428Z,2.10
2019-06-01T03:25:15.809Z,2.20
2019-06-01T03:27:44.403Z,1.98
2019-06-01T03:30:15.435Z,2.00
2019-06-01T03:32:42.857Z,2.15
2019-06-01T03:35:11.235Z,2.33
2019-06-01T03:37:39.622Z,2.17
2019-06-01T03:40:15.820Z,2.12
2019-06-01T03:42:38.063Z,2.15
2019-06-01T03:45:07.639Z,2.47
2019-06-01T03:47:36.113Z,2.42
2019-06-01T03:50:06.931Z,3.10
2019-06-01T03:52:35.361Z,2.20
2019-06-01T03:55:05.876Z,2.20
2019-06-01T03:57:34.413Z,2.05
2019-06-01T04:00:03.371Z,2.12
2019-06-01T04:02:33.355Z,2.10
2019-06-01T04:05:03.340Z,2.17
2019-06-01T04:07:31.934Z,2.12
2019-06-01T04:10:01.514Z,2.37
2019-06-01T04:12:30.139Z,2.00
2019-06-01T04:14:58.595Z,2.37
2019-06-01T04:17:26.966Z,2.10
2019-06-01T04:19:55.361Z,2.30
2019-06-01T04:22:23.730Z,2.45
2019-06-01T04:24:52.131Z,2.00
2019-06-01T04:27:20.496Z,2.20
2019-06-01T04:29:48.923Z,2.30
2019-06-01T04:32:17.247Z,2.30
2019-06-01T04:34:45.635Z,2.37
2019-06-01T04:37:14.013Z,2.08
2019-06-01T04:39:42.404Z,2.42
2019-06-01T04:42:11.801Z,2.33
2019-06-01T04:44:40.400Z,2.60
2019-06-01T04:47:09.275Z,2.35
2019-06-01T04:49:38.960Z,2.47
2019-06-01T04:52:07.342Z,2.10
2019-06-01T04:54:35.743Z,2.37
2019-06-01T04:57:04.762Z,2.80
2019-06-01T04:59:33.321Z,2.47
2019-06-01T05:02:01.830Z,2.67
2019-06-01T05:04:30.178Z,2.47
2019-06-01T05:06:58.555Z,2.20
2019-06-01T05:09:26.933Z,2.45
2019-06-01T05:11:55.313Z,2.33
2019-06-01T05:14:23.702Z,2.35
2019-06-01T05:16:52.087Z,2.33
2019-06-01T05:19:20.591Z,2.60
2019-06-01T05:21:48.984Z,2.42
2019-06-01T05:24:17.378Z,2.70
2019-06-01T05:26:45.909Z,2.37
2019-06-01T05:29:15.555Z,2.20
2019-06-01T05:31:44.238Z,2.42
2019-06-01T05:34:13.766Z,2.40
2019-06-01T05:36:42.978Z,2.22
2019-06-01T05:39:12.333Z,2.30
2019-06-01T05:41:40.767Z,2.37
2019-06-01T05:44:09.267Z,2.45
2019-06-01T05:46:37.697Z,2.02
2019-06-01T05:49:06.046Z,2.40
2019-06-01T05:51:34.441Z,2.27
2019-06-01T05:54:02.819Z,2.20
2019-06-01T05:56:31.305Z,2.10
2019-06-01T05:58:59.666Z,2.37
2019-06-01T06:01:28.062Z,2.20
2019-06-01T06:03:56.437Z,2.20
2019-06-01T06:06:24.902Z,2.30
2019-06-01T06:08:53.279Z,2.22
2019-06-01T06:11:21.672Z,2.60
2019-06-01T06:13:50.044Z,2.37
2019-06-01T06:16:20.709Z,2.47
2019-06-01T06:18:48.470Z,1.95
2019-06-01T06:21:18.240Z,2.10
2019-06-01T06:23:46.850Z,1.95
2019-06-01T06:26:16.826Z,2.40
2019-06-01T06:28:45.254Z,1.90
2019-06-01T06:31:14.930Z,1.80
2019-06-01T06:33:55.605Z,1.75
2019-06-01T06:36:13.561Z,1.72
2019-06-01T06:38:41.983Z,1.35
2019-06-01T06:41:10.382Z,1.80
2019-06-01T06:43:38.754Z,1.57
2019-06-01T06:46:07.144Z,2.00
2019-06-01T06:48:35.518Z,1.75
2019-06-01T06:51:03.902Z,1.62
2019-06-01T06:53:35.099Z,1.57
2019-06-01T06:56:02.351Z,1.42
2019-06-01T06:58:30.726Z,1.47
2019-06-01T07:00:59.310Z,1.47
2019-06-01T07:03:27.978Z,1.60
2019-06-01T07:05:56.483Z,1.55
2019-06-01T07:08:25.897Z,1.95
2019-06-01T07:10:56.696Z,1.42
2019-06-01T07:13:25.432Z,1.55
2019-06-01T07:15:53.914Z,1.50
2019-06-01T07:18:23.533Z,1.50
2019-06-01T07:20:52.192Z,1.60
2019-06-01T07:23:21.616Z,1.60
2019-06-01T07:25:50.126Z,1.27
2019-06-01T07:28:18.522Z,1.27
2019-06-01T07:30:50.584Z,1.45
2019-06-01T07:33:16.919Z,1.67
2019-06-01T07:35:45.292Z,1.55
2019-06-01T07:38:13.679Z,1.47
2019-06-01T07:40:42.038Z,1.27
2019-06-01T07:43:10.427Z,1.50
2019-06-01T07:45:38.856Z,1.40
2019-06-01T07:48:07.300Z,1.27
2019-06-01T07:50:35.691Z,1.37
2019-06-01T07:53:04.089Z,1.40
2019-06-01T07:55:32.446Z,1.57
2019-06-01T07:58:00.771Z,1.20
2019-06-01T08:00:29.132Z,1.15
2019-06-01T08:02:57.518Z,1.20
2019-06-01T08:05:26.530Z,1.20
2019-06-01T08:07:55.061Z,1.40
2019-06-01T08:10:24.875Z,1.42
2019-06-01T08:12:54.048Z,1.10
2019-06-01T08:15:23.535Z,1.40
2019-06-01T08:17:53.979Z,1.20
2019-06-01T08:20:22.359Z,1.27
2019-06-01T08:22:50.795Z,1.00
2019-06-01T08:25:19.339Z,1.02
2019-06-01T08:27:47.948Z,1.25
2019-06-01T08:30:16.398Z,1.00
2019-06-01T08:32:44.864Z,1.30
2019-06-01T08:35:13.358Z,1.00
2019-06-01T08:37:41.882Z,1.20
2019-06-01T08:40:10.259Z,0.90
2019-06-01T08:42:38.671Z,0.98
2019-06-01T08:45:07.213Z,0.90
2019-06-01T08:47:35.782Z,1.10
2019-06-01T08:50:04.995Z,0.93
2019-06-01T08:52:34.208Z,1.00
2019-06-01T08:55:02.717Z,1.25
2019-06-01T08:57:32.365Z,1.00
2019-06-01T09:00:01.763Z,1.10
2019-06-01T09:02:30.867Z,0.90
2019-06-01T09:04:59.275Z,0.98
2019-06-01T09:07:28.896Z,1.12
2019-06-01T09:09:57.468Z,1.10
2019-06-01T09:12:27.160Z,1.07
2019-06-01T09:14:55.691Z,0.98
2019-06-01T09:17:25.262Z,1.10
2019-06-01T09:19:53.638Z,0.93
2019-06-01T09:22:22.032Z,0.62
2019-06-01T09:24:53.230Z,0.98
2019-06-01T09:27:20.442Z,0.93
2019-06-01T09:29:48.807Z,0.90
2019-06-01T09:32:17.191Z,0.88
2019-06-01T09:34:45.559Z,1.00
2019-06-01T09:37:13.950Z,0.88
2019-06-01T09:39:42.322Z,0.90
2019-06-01T09:42:10.683Z,1.00
2019-06-01T09:44:39.153Z,0.90
2019-06-01T09:47:07.911Z,0.93
2019-06-01T09:49:36.303Z,1.10
2019-06-01T09:52:04.937Z,1.30
2019-06-01T09:54:34.602Z,0.98
2019-06-01T09:57:03.369Z,0.90
2019-06-01T09:59:32.015Z,0.90
2019-06-01T10:02:00.415Z,1.05
2019-06-01T10:04:30.137Z,0.90
2019-06-01T10:06:58.557Z,0.95
2019-06-01T10:09:27.015Z,0.78
2019-06-01T10:11:55.412Z,0.70
2019-06-01T10:14:23.912Z,0.80
2019-06-01T10:16:52.351Z,0.85
2019-06-01T10:19:20.824Z,0.70
2019-06-01T10:21:49.197Z,0.70
2019-06-01T10:24:17.745Z,0.80
2019-06-01T10:26:46.492Z,0.80
2019-06-01T10:29:14.952Z,0.90
2019-06-01T10:31:43.323Z,0.85
2019-06-01T10:34:11.731Z,1.00
2019-06-01T10:36:40.274Z,0.80
2019-06-01T10:39:08.684Z,0.88
2019-06-01T10:41:37.422Z,0.95
2019-06-01T10:44:06.005Z,0.90
2019-06-01T10:46:35.802Z,0.93
2019-06-01T10:49:04.527Z,0.90
2019-06-01T10:51:34.067Z,0.80
2019-06-01T10:54:02.790Z,0.93
2019-06-01T10:56:32.291Z,0.80
2019-06-01T10:59:00.889Z,1.12
2019-06-01T11:01:32.269Z,0.90
2019-06-01T11:03:59.267Z,0.90
2019-06-01T11:06:40.240Z,0.98
2019-06-01T11:09:08.204Z,0.80
2019-06-01T11:11:36.943Z,1.00
2019-06-01T11:14:05.419Z,0.98
2019-06-01T11:16:35.093Z,0.85
2019-06-01T11:19:03.539Z,1.00
2019-06-01T11:21:33.402Z,0.90
2019-06-01T11:24:02.106Z,0.80
2019-06-01T11:26:30.646Z,0.98
2019-06-01T11:28:59.159Z,0.78
2019-06-01T11:31:27.841Z,0.90
2019-06-01T11:33:56.181Z,0.80
2019-06-01T11:36:24.566Z,0.90
2019-06-01T11:38:53.003Z,0.82
2019-06-01T11:41:21.482Z,0.93
2019-06-01T11:43:49.851Z,0.70
2019-06-01T11:46:18.423Z,0.90
2019-06-01T11:48:46.783Z,0.80
2019-06-01T11:51:15.195Z,0.78
2019-06-01T11:53:43.607Z,0.95
2019-06-01T11:56:15.269Z,4.65
2019-06-01T11:58:43.614Z,1.00
2019-06-01T12:01:11.979Z,0.80
2019-06-01T12:03:41.702Z,0.72
2019-06-01T12:06:10.255Z,0.98
2019-06-01T12:08:39.870Z,0.80
2019-06-01T12:11:08.410Z,0.78
2019-06-01T12:13:37.964Z,0.70
2019-06-01T12:16:06.452Z,0.82
2019-06-01T12:18:34.817Z,0.88
2019-06-01T12:21:03.214Z,0.95
2019-06-01T12:23:34.312Z,0.70
2019-06-01T12:26:02.705Z,0.85
2019-06-01T12:28:31.191Z,0.80
2019-06-01T12:30:59.584Z,0.90
2019-06-01T12:33:27.947Z,0.78
2019-06-01T12:35:56.346Z,0.80
2019-06-01T12:38:24.742Z,0.90
2019-06-01T12:40:53.154Z,1.10
2019-06-01T12:43:21.507Z,0.90
2019-06-01T12:46:05.440Z,0.72
2019-06-01T12:48:19.921Z,0.90
2019-06-01T12:50:50.862Z,0.70
2019-06-01T12:53:18.810Z,1.40
2019-06-01T12:55:47.296Z,0.72
2019-06-01T12:58:15.663Z,0.80
2019-06-01T13:00:44.282Z,0.80
2019-06-01T13:03:12.961Z,0.80
2019-06-01T13:05:41.545Z,0.78
2019-06-01T13:08:10.358Z,0.90
2019-06-01T13:10:38.752Z,0.82
2019-06-01T13:13:07.119Z,0.70
2019-06-01T13:15:35.494Z,0.70
2019-06-01T13:18:03.882Z,0.80
2019-06-01T13:20:34.527Z,0.90
2019-06-01T13:23:02.930Z,0.90
2019-06-01T13:25:31.360Z,0.70
2019-06-01T13:27:59.892Z,0.70
2019-06-01T13:30:28.240Z,0.70
2019-06-01T13:32:56.637Z,0.60
2019-06-01T13:35:24.997Z,0.80
2019-06-01T13:38:10.646Z,0.68
2019-06-01T13:40:23.407Z,0.68
2019-06-01T13:42:51.813Z,0.70
2019-06-01T13:45:20.467Z,0.80
2019-06-01T13:47:49.844Z,0.70
2019-06-01T13:50:18.307Z,0.80
2019-06-01T13:52:47.856Z,0.80
2019-06-01T13:55:16.368Z,0.80
2019-06-01T13:57:44.774Z,0.80
2019-06-01T14:00:29.434Z,0.65
2019-06-01T14:02:50.813Z,0.70
2019-06-01T14:05:18.415Z,0.72
2019-06-01T14:07:47.451Z,0.68
2019-06-01T14:10:15.934Z,0.80
2019-06-01T14:12:45.266Z,0.90
2019-06-01T14:15:13.691Z,0.80
2019-06-01T14:17:42.074Z,0.82
2019-06-01T14:20:10.430Z,0.90
2019-06-01T14:22:39.114Z,0.90
2019-06-01T14:25:13.717Z,0.95
2019-06-01T14:27:38.294Z,0.75
2019-06-01T14:30:08.332Z,0.90
2019-06-01T14:32:36.728Z,0.98
2019-06-01T14:35:08.324Z,0.90
2019-06-01T14:37:36.714Z,0.70
2019-06-01T14:40:06.317Z,0.68
2019-06-01T14:42:34.761Z,0.72
2019-06-01T14:45:03.583Z,0.80
2019-06-01T14:47:31.978Z,0.85
2019-06-01T14:50:00.376Z,0.82
2019-06-01T14:52:28.743Z,0.95
2019-06-01T14:54:58.035Z,0.80
2019-06-01T14:57:26.654Z,1.07
2019-06-01T14:59:56.052Z,0.95
2019-06-01T15:02:24.535Z,1.00
2019-06-01T15:04:54.189Z,0.70
2019-06-01T15:07:22.800Z,0.80
2019-06-01T15:09:52.227Z,0.85
2019-06-01T15:12:20.749Z,1.10
2019-06-01T15:14:49.056Z,0.90
2019-06-01T15:17:17.431Z,0.93
2019-06-01T15:19:45.798Z,0.90
2019-06-01T15:22:14.153Z,0.70
2019-06-01T15:24:42.892Z,0.70
2019-06-01T15:27:11.287Z,1.00
2019-06-01T15:29:39.679Z,0.80
2019-06-01T15:32:08.054Z,0.88
2019-06-01T15:34:36.444Z,0.90
2019-06-01T15:37:05.040Z,0.88
2019-06-01T15:39:33.388Z,0.70
2019-06-01T15:42:01.764Z,0.90
2019-06-01T15:44:30.151Z,0.78
2019-06-01T15:46:59.734Z,0.80
2019-06-01T15:49:28.225Z,0.93
2019-06-01T15:51:57.729Z,1.02
2019-06-01T15:54:27.145Z,1.00
2019-06-01T15:56:56.319Z,1.10
2019-06-01T15:59:25.258Z,1.02
2019-06-01T16:01:54.903Z,0.88
2019-06-01T16:04:23.641Z,0.82
2019-06-01T16:06:53.063Z,0.80
2019-06-01T16:09:21.677Z,0.70
2019-06-01T16:11:50.040Z,0.80
2019-06-01T16:14:18.436Z,0.90
2019-06-01T16:16:46.799Z,0.88
2019-06-01T16:19:15.185Z,1.00
2019-06-01T16:21:43.553Z,0.88
2019-06-01T16:24:11.867Z,0.80
2019-06-01T16:26:40.235Z,1.10
2019-06-01T16:29:08.631Z,0.78
2019-06-01T16:31:37.000Z,0.70
2019-06-01T16:34:05.417Z,0.85
2019-06-01T16:36:33.759Z,1.05
2019-06-01T16:39:05.255Z,0.90
2019-06-01T16:41:32.162Z,0.80
2019-06-01T16:44:01.767Z,1.10
2019-06-01T16:46:30.228Z,1.05
2019-06-01T16:48:59.533Z,0.88
2019-06-01T16:51:47.638Z,0.90
2019-06-01T16:54:16.020Z,0.90
2019-06-01T16:56:44.880Z,0.80
2019-06-01T16:59:14.211Z,0.93
2019-06-01T17:01:42.582Z,0.80
2019-06-01T17:04:10.976Z,1.07
2019-06-01T17:06:39.343Z,1.20
2019-06-01T17:09:07.869Z,0.98
2019-06-01T17:11:36.267Z,1.00
2019-06-01T17:14:05.625Z,0.80
2019-06-01T17:16:34.109Z,1.00
2019-06-01T17:19:03.075Z,1.05
2019-06-01T17:21:31.707Z,0.98
2019-06-01T17:24:00.062Z,0.80
2019-06-01T17:26:28.511Z,1.22
2019-06-01T17:28:57.908Z,1.05
2019-06-01T17:31:26.350Z,0.98
2019-06-01T17:33:55.075Z,0.95
2019-06-01T17:36:23.559Z,1.65
2019-06-01T17:38:51.920Z,1.32
2019-06-01T17:41:20.852Z,1.45
2019-06-01T17:43:49.207Z,1.20
2019-06-01T17:46:17.596Z,1.10
2019-06-01T17:48:45.958Z,1.10
2019-06-01T17:51:14.346Z,1.20
2019-06-01T17:53:42.723Z,1.20
2019-06-01T17:56:12.154Z,1.25
2019-06-01T17:58:40.717Z,2.40
2019-06-01T18:01:09.953Z,2.30
2019-06-01T18:03:38.364Z,2.33
2019-06-01T18:06:07.776Z,1.60
2019-06-01T18:08:36.224Z,1.90
2019-06-01T18:11:04.615Z,2.60
2019-06-01T18:13:32.979Z,2.62
2019-06-01T18:16:02.991Z,2.17
2019-06-01T18:18:31.376Z,1.70
2019-06-01T18:20:59.758Z,1.70
2019-06-01T18:23:28.159Z,1.57
2019-06-01T18:25:56.549Z,1.30
2019-06-01T18:28:24.986Z,1.30
2019-06-01T18:30:53.507Z,1.27
2019-06-01T18:33:21.971Z,1.20
2019-06-01T18:35:50.358Z,1.10
2019-06-01T18:38:18.862Z,1.17
2019-06-01T18:40:49.192Z,2.05
2019-06-01T18:43:18.541Z,2.42
2019-06-01T18:45:47.141Z,2.37
2019-06-01T18:48:15.695Z,2.20
2019-06-01T18:50:44.083Z,1.92
2019-06-01T18:53:12.713Z,2.10
2019-06-01T18:55:42.199Z,2.00
2019-06-01T18:58:10.644Z,2.55
2019-06-01T19:00:40.094Z,2.60
2019-06-01T19:03:09.014Z,2.30
2019-06-01T19:05:37.518Z,2.50
2019-06-01T19:08:07.042Z,2.15
2019-06-01T19:10:35.664Z,2.75
2019-06-01T19:13:05.612Z,3.12
2019-06-01T19:15:34.493Z,2.75
2019-06-01T19:18:02.991Z,2.60
2019-06-01T19:20:33.306Z,2.70
2019-06-01T19:23:01.351Z,2.47
2019-06-01T19:25:31.686Z,1.95
2019-06-01T19:28:00.072Z,1.80
2019-06-01T19:30:36.050Z,1.98
2019-06-01T19:33:06.752Z,1.80
2019-06-01T19:35:35.211Z,2.00
2019-06-01T19:38:03.600Z,1.82
2019-06-01T19:40:34.088Z,2.17
2019-06-01T19:43:02.716Z,2.10
2019-06-01T19:45:31.079Z,2.40
2019-06-01T19:47:59.471Z,2.05
2019-06-01T19:50:27.851Z,2.02
2019-06-01T19:52:56.244Z,2.10
2019-06-01T19:55:24.645Z,2.00
2019-06-01T19:57:53.035Z,1.80
2019-06-01T20:00:22.460Z,1.77
2019-06-01T20:02:50.960Z,1.80
2019-06-01T20:05:19.341Z,2.10
2019-06-01T20:07:47.998Z,2.30
2019-06-01T20:10:16.391Z,2.08
2019-06-01T20:12:44.742Z,2.15
2019-06-01T20:15:13.356Z,2.10
2019-06-01T20:17:41.800Z,2.00
2019-06-01T20:20:10.717Z,2.00
2019-06-01T20:22:39.323Z,2.25
2019-06-01T20:25:08.359Z,2.15
2019-06-01T20:27:36.882Z,1.80
2019-06-01T20:30:07.942Z,2.15
2019-06-01T20:32:36.330Z,2.12
2019-06-01T20:35:05.882Z,2.33
2019-06-01T20:37:34.266Z,3.80
2019-06-01T20:40:02.569Z,2.62
2019-06-01T20:42:32.940Z,2.55
2019-06-01T20:45:00.971Z,2.22
2019-06-01T20:47:29.559Z,2.02
2019-06-01T20:49:57.990Z,2.37
2019-06-01T20:52:26.308Z,2.20
2019-06-01T20:54:54.659Z,2.15
2019-06-01T20:57:24.022Z,2.20
2019-06-01T20:59:52.454Z,2.45
2019-06-01T21:02:21.808Z,2.52
2019-06-01T21:04:50.203Z,2.10
2019-06-01T21:07:19.825Z,2.20
2019-06-01T21:09:48.297Z,2.15
2019-06-01T21:12:16.691Z,1.90
2019-06-01T21:14:45.062Z,1.95
2019-06-01T21:17:14.368Z,2.22
2019-06-01T21:19:42.761Z,1.72
2019-06-01T21:22:11.175Z,1.87
2019-06-01T21:24:39.570Z,2.47
2019-06-01T21:27:07.934Z,1.82
2019-06-01T21:29:36.327Z,2.20
2019-06-01T21:32:04.705Z,2.20
2019-06-01T21:34:34.377Z,2.37
2019-06-01T21:37:02.773Z,2.72
2019-06-01T21:39:31.128Z,2.02
2019-06-01T21:41:59.558Z,2.08
2019-06-01T21:44:27.885Z,2.20
2019-06-01T21:46:56.257Z,2.30
2019-06-01T21:49:25.865Z,2.47
2019-06-01T21:51:54.315Z,1.92
2019-06-01T21:54:22.714Z,2.40
2019-06-01T21:56:51.071Z,2.87
2019-06-01T21:59:20.511Z,2.30
2019-06-01T22:01:49.031Z,2.37
2019-06-01T22:04:18.654Z,2.42
2019-06-01T22:06:47.139Z,2.30
2019-06-01T22:09:15.564Z,2.58
2019-06-01T22:11:44.775Z,2.50
2019-06-01T22:14:13.147Z,2.50
2019-06-01T22:16:41.526Z,2.27
2019-06-01T22:19:09.996Z,2.20
2019-06-01T22:21:38.382Z,2.27
2019-06-01T22:24:06.756Z,2.72
2019-06-01T22:26:35.126Z,2.10
2019-06-01T22:29:03.520Z,1.92
2019-06-01T22:31:31.895Z,2.20
2019-06-01T22:34:00.291Z,2.25
2019-06-01T22:36:29.391Z,2.60
2019-06-01T22:38:57.911Z,2.22
2019-06-01T22:41:26.297Z,2.17
2019-06-01T22:43:54.704Z,2.30
2019-06-01T22:46:24.358Z,2.30
2019-06-01T22:48:52.977Z,2.25
2019-06-01T22:51:21.349Z,2.10
2019-06-01T22:53:49.734Z,2.30
2019-06-01T22:56:18.107Z,2.60
2019-06-01T22:58:46.492Z,2.20
2019-06-01T23:01:14.864Z,2.12
2019-06-01T23:03:43.347Z,2.40
2019-06-01T23:06:11.698Z,2.58
2019-06-01T23:08:40.090Z,2.92
2019-06-01T23:11:08.456Z,2.90
2019-06-01T23:13:52.226Z,2.75
2019-06-01T23:16:08.383Z,2.75
2019-06-01T23:18:37.005Z,2.67
2019-06-01T23:21:05.409Z,3.27
2019-06-01T23:23:33.815Z,3.02
2019-06-01T23:26:02.231Z,2.47
2019-06-01T23:28:30.619Z,2.90
2019-06-01T23:30:59.007Z,3.00
2019-06-01T23:33:27.375Z,2.95
2019-06-01T23:35:55.790Z,2.90
2019-06-01T23:38:24.549Z,2.87
2019-06-01T23:40:53.076Z,3.00
2019-06-01T23:43:22.609Z,3.20
2019-06-01T23:45:51.184Z,3.65
2019-06-01T23:48:19.631Z,3.40
2019-06-01T23:50:48.010Z,3.22
2019-06-01T23:53:16.519Z,3.80
2019-06-01T23:55:44.908Z,3.10
2019-06-01T23:58:13.286Z,2.98
